sensor_id;sensor_type;location;lat;lon;timestamp;temperature;humidity
15930;DHT22;8064;51.142;4.780;2023-06-22T00:00:44;20.70;98.50
15930;DHT22;8064;51.142;4.780;2023-06-22T00:03:10;20.70;98.60
15930;DHT22;8064;51.142;4.780;2023-06-22T00:05:36;20.70;98.70
15930;DHT22;8064;51.142;4.780;2023-06-22T00:08:03;20.60;98.70
15930;DHT22;8064;51.142;4.780;2023-06-22T00:10:31;20.60;98.80
15930;DHT22;8064;51.142;4.780;2023-06-22T00:12:56;20.60;98.80
15930;DHT22;8064;51.142;4.780;2023-06-22T00:15:22;20.60;98.80
15930;DHT22;8064;51.142;4.780;2023-06-22T00:17:49;20.60;98.90
15930;DHT22;8064;51.142;4.780;2023-06-22T00:20:16;20.60;99.00
15930;DHT22;8064;51.142;4.780;2023-06-22T00:22:44;20.60;99.10
15930;DHT22;8064;51.142;4.780;2023-06-22T00:25:11;20.60;99.20
15930;DHT22;8064;51.142;4.780;2023-06-22T00:27:37;20.50;99.30
15930;DHT22;8064;51.142;4.780;2023-06-22T00:30:03;20.50;99.40
15930;DHT22;8064;51.142;4.780;2023-06-22T00:32:29;20.50;99.30
15930;DHT22;8064;51.142;4.780;2023-06-22T00:34:55;20.50;99.40
15930;DHT22;8064;51.142;4.780;2023-06-22T00:37:20;20.40;99.40
15930;DHT22;8064;51.142;4.780;2023-06-22T00:39:56;20.40;99.50
15930;DHT22;8064;51.142;4.780;2023-06-22T00:42:23;20.40;99.50
15930;DHT22;8064;51.142;4.780;2023-06-22T00:44:49;20.30;99.50
15930;DHT22;8064;51.142;4.780;2023-06-22T00:47:16;20.30;99.60
15930;DHT22;8064;51.142;4.780;2023-06-22T00:49:43;20.30;99.60
15930;DHT22;8064;51.142;4.780;2023-06-22T00:52:09;20.30;99.60
15930;DHT22;8064;51.142;4.780;2023-06-22T00:54:40;20.20;99.60
15930;DHT22;8064;51.142;4.780;2023-06-22T00:57:21;20.20;99.90
15930;DHT22;8064;51.142;4.780;2023-06-22T00:59:48;20.20;99.70
15930;DHT22;8064;51.142;4.780;2023-06-22T01:02:14;20.20;99.80
15930;DHT22;8064;51.142;4.780;2023-06-22T01:04:40;20.20;99.80
15930;DHT22;8064;51.142;4.780;2023-06-22T01:09:36;20.20;99.80
15930;DHT22;8064;51.142;4.780;2023-06-22T01:12:07;20.20;99.90
15930;DHT22;8064;51.142;4.780;2023-06-22T01:14:41;20.20;99.90
15930;DHT22;8064;51.142;4.780;2023-06-22T01:17:08;20.20;99.90
15930;DHT22;8064;51.142;4.780;2023-06-22T01:19:45;20.20;99.90
15930;DHT22;8064;51.142;4.780;2023-06-22T01:22:16;20.20;99.90
15930;DHT22;8064;51.142;4.780;2023-06-22T01:25:02;20.20;99.90
15930;DHT22;8064;51.142;4.780;2023-06-22T01:30:12;20.10;99.90
15930;DHT22;8064;51.142;4.780;2023-06-22T01:32:41;20.10;99.90
15930;DHT22;8064;51.142;4.780;2023-06-22T01:35:10;20.20;99.90
15930;DHT22;8064;51.142;4.780;2023-06-22T01:37:37;20.20;99.90
15930;DHT22;8064;51.142;4.780;2023-06-22T01:40:05;20.20;99.90
15930;DHT22;8064;51.142;4.780;2023-06-22T01:42:32;20.20;99.90
15930;DHT22;8064;51.142;4.780;2023-06-22T01:44:58;20.30;99.90
15930;DHT22;8064;51.142;4.780;2023-06-22T01:47:25;20.30;99.90
15930;DHT22;8064;51.142;4.780;2023-06-22T01:49:53;20.30;99.90
15930;DHT22;8064;51.142;4.780;2023-06-22T01:52:19;20.30;99.90
15930;DHT22;8064;51.142;4.780;2023-06-22T01:54:47;20.20;99.90
15930;DHT22;8064;51.142;4.780;2023-06-22T01:57:13;20.20;99.90
15930;DHT22;8064;51.142;4.780;2023-06-22T02:02:25;20.10;99.90
15930;DHT22;8064;51.142;4.780;2023-06-22T02:04:58;20.10;99.90
15930;DHT22;8064;51.142;4.780;2023-06-22T02:07:31;20.10;99.90
15930;DHT22;8064;51.142;4.780;2023-06-22T02:09:59;20.10;99.90
15930;DHT22;8064;51.142;4.780;2023-06-22T02:12:26;20.10;99.90
15930;DHT22;8064;51.142;4.780;2023-06-22T02:14:53;20.00;99.90
15930;DHT22;8064;51.142;4.780;2023-06-22T02:17:19;20.00;99.90
15930;DHT22;8064;51.142;4.780;2023-06-22T02:19:46;20.00;99.90
15930;DHT22;8064;51.142;4.780;2023-06-22T02:22:11;20.00;99.90
15930;DHT22;8064;51.142;4.780;2023-06-22T02:24:39;19.90;99.90
15930;DHT22;8064;51.142;4.780;2023-06-22T02:27:05;19.90;99.90
15930;DHT22;8064;51.142;4.780;2023-06-22T02:29:32;19.80;99.90
15930;DHT22;8064;51.142;4.780;2023-06-22T02:31:58;19.80;99.90
15930;DHT22;8064;51.142;4.780;2023-06-22T02:34:24;19.70;99.90
15930;DHT22;8064;51.142;4.780;2023-06-22T02:36:50;19.70;99.90
15930;DHT22;8064;51.142;4.780;2023-06-22T02:42:03;19.60;99.90
15930;DHT22;8064;51.142;4.780;2023-06-22T02:44:29;19.60;99.90
15930;DHT22;8064;51.142;4.780;2023-06-22T02:46:55;19.60;99.90
15930;DHT22;8064;51.142;4.780;2023-06-22T02:49:21;19.60;99.90
15930;DHT22;8064;51.142;4.780;2023-06-22T02:51:47;19.60;99.90
15930;DHT22;8064;51.142;4.780;2023-06-22T02:54:14;19.50;99.90
15930;DHT22;8064;51.142;4.780;2023-06-22T02:56:39;19.50;99.90
15930;DHT22;8064;51.142;4.780;2023-06-22T02:59:06;19.50;99.90
15930;DHT22;8064;51.142;4.780;2023-06-22T03:01:32;19.50;99.90
15930;DHT22;8064;51.142;4.780;2023-06-22T03:04:06;19.50;99.90
15930;DHT22;8064;51.142;4.780;2023-06-22T03:06:32;19.40;99.90
15930;DHT22;8064;51.142;4.780;2023-06-22T03:09:01;19.40;99.90
15930;DHT22;8064;51.142;4.780;2023-06-22T03:11:27;19.40;99.90
15930;DHT22;8064;51.142;4.780;2023-06-22T03:13:52;19.40;99.90
15930;DHT22;8064;51.142;4.780;2023-06-22T03:16:19;19.40;99.90
15930;DHT22;8064;51.142;4.780;2023-06-22T03:18:45;19.40;99.90
15930;DHT22;8064;51.142;4.780;2023-06-22T03:21:11;19.40;99.90
15930;DHT22;8064;51.142;4.780;2023-06-22T03:23:36;19.40;99.90
15930;DHT22;8064;51.142;4.780;2023-06-22T03:26:02;19.40;99.90
15930;DHT22;8064;51.142;4.780;2023-06-22T03:28:29;19.40;99.90
15930;DHT22;8064;51.142;4.780;2023-06-22T03:30:57;19.40;99.90
15930;DHT22;8064;51.142;4.780;2023-06-22T03:33:23;19.50;99.90
15930;DHT22;8064;51.142;4.780;2023-06-22T03:35:49;19.50;99.90
15930;DHT22;8064;51.142;4.780;2023-06-22T03:38:16;19.50;99.90
15930;DHT22;8064;51.142;4.780;2023-06-22T03:40:42;19.50;99.90
15930;DHT22;8064;51.142;4.780;2023-06-22T03:43:07;19.50;99.90
15930;DHT22;8064;51.142;4.780;2023-06-22T03:45:33;19.50;99.90
15930;DHT22;8064;51.142;4.780;2023-06-22T03:48:00;19.50;99.90
15930;DHT22;8064;51.142;4.780;2023-06-22T03:50:25;19.50;99.90
15930;DHT22;8064;51.142;4.780;2023-06-22T03:52:51;19.40;99.90
15930;DHT22;8064;51.142;4.780;2023-06-22T03:55:19;19.40;99.90
15930;DHT22;8064;51.142;4.780;2023-06-22T03:57:45;19.40;99.90
15930;DHT22;8064;51.142;4.780;2023-06-22T04:00:11;19.40;99.90
15930;DHT22;8064;51.142;4.780;2023-06-22T04:02:37;19.40;99.90
15930;DHT22;8064;51.142;4.780;2023-06-22T04:05:03;19.30;99.90
15930;DHT22;8064;51.142;4.780;2023-06-22T04:07:28;19.40;99.90
15930;DHT22;8064;51.142;4.780;2023-06-22T04:09:54;19.40;99.90
15930;DHT22;8064;51.142;4.780;2023-06-22T04:12:20;19.40;99.90
15930;DHT22;8064;51.142;4.780;2023-06-22T04:14:46;19.40;99.90
15930;DHT22;8064;51.142;4.780;2023-06-22T04:17:11;19.40;99.90
15930;DHT22;8064;51.142;4.780;2023-06-22T04:19:39;19.40;99.90
15930;DHT22;8064;51.142;4.780;2023-06-22T04:22:05;19.40;99.90
15930;DHT22;8064;51.142;4.780;2023-06-22T04:24:33;19.50;99.90
15930;DHT22;8064;51.142;4.780;2023-06-22T04:26:59;19.50;99.90
15930;DHT22;8064;51.142;4.780;2023-06-22T04:29:29;19.50;99.90
15930;DHT22;8064;51.142;4.780;2023-06-22T04:31:56;19.50;99.90
15930;DHT22;8064;51.142;4.780;2023-06-22T04:34:24;19.60;99.90
15930;DHT22;8064;51.142;4.780;2023-06-22T04:36:52;19.60;99.90
15930;DHT22;8064;51.142;4.780;2023-06-22T04:39:17;19.60;99.90
15930;DHT22;8064;51.142;4.780;2023-06-22T04:41:44;19.70;99.90
15930;DHT22;8064;51.142;4.780;2023-06-22T04:44:11;19.70;99.90
15930;DHT22;8064;51.142;4.780;2023-06-22T04:46:37;19.70;99.90
15930;DHT22;8064;51.142;4.780;2023-06-22T04:49:05;19.80;99.90
15930;DHT22;8064;51.142;4.780;2023-06-22T04:51:32;19.80;99.90
15930;DHT22;8064;51.142;4.780;2023-06-22T04:53:58;19.80;99.90
15930;DHT22;8064;51.142;4.780;2023-06-22T04:56:26;19.90;99.90
15930;DHT22;8064;51.142;4.780;2023-06-22T04:58:53;19.90;99.90
15930;DHT22;8064;51.142;4.780;2023-06-22T05:01:22;19.90;99.90
15930;DHT22;8064;51.142;4.780;2023-06-22T05:03:49;19.90;99.90
15930;DHT22;8064;51.142;4.780;2023-06-22T05:06:15;19.90;99.90
15930;DHT22;8064;51.142;4.780;2023-06-22T05:08:41;19.90;99.90
15930;DHT22;8064;51.142;4.780;2023-06-22T05:11:06;19.90;99.90
15930;DHT22;8064;51.142;4.780;2023-06-22T05:13:32;20.00;99.90
15930;DHT22;8064;51.142;4.780;2023-06-22T05:15:58;20.00;99.90
15930;DHT22;8064;51.142;4.780;2023-06-22T05:18:29;20.10;99.90
15930;DHT22;8064;51.142;4.780;2023-06-22T05:20:55;20.10;99.90
15930;DHT22;8064;51.142;4.780;2023-06-22T05:23:21;20.20;99.90
15930;DHT22;8064;51.142;4.780;2023-06-22T05:25:46;20.20;99.90
15930;DHT22;8064;51.142;4.780;2023-06-22T05:28:12;20.30;99.90
15930;DHT22;8064;51.142;4.780;2023-06-22T05:30:38;20.30;99.90
15930;DHT22;8064;51.142;4.780;2023-06-22T05:33:04;20.40;99.90
15930;DHT22;8064;51.142;4.780;2023-06-22T05:35:29;20.40;99.90
15930;DHT22;8064;51.142;4.780;2023-06-22T05:37:55;20.40;99.90
15930;DHT22;8064;51.142;4.780;2023-06-22T05:40:21;20.40;99.90
15930;DHT22;8064;51.142;4.780;2023-06-22T05:42:47;20.50;99.90
15930;DHT22;8064;51.142;4.780;2023-06-22T05:45:13;20.50;99.90
15930;DHT22;8064;51.142;4.780;2023-06-22T05:47:39;20.50;99.90
15930;DHT22;8064;51.142;4.780;2023-06-22T05:50:05;20.60;99.90
15930;DHT22;8064;51.142;4.780;2023-06-22T05:52:34;20.60;99.90
15930;DHT22;8064;51.142;4.780;2023-06-22T05:55:00;20.70;99.90
15930;DHT22;8064;51.142;4.780;2023-06-22T05:57:25;20.70;99.90
15930;DHT22;8064;51.142;4.780;2023-06-22T05:59:51;20.70;99.90
15930;DHT22;8064;51.142;4.780;2023-06-22T06:02:19;20.70;99.90
15930;DHT22;8064;51.142;4.780;2023-06-22T06:04:45;20.70;99.90
15930;DHT22;8064;51.142;4.780;2023-06-22T06:07:11;20.80;99.90
15930;DHT22;8064;51.142;4.780;2023-06-22T06:09:36;20.80;99.90
15930;DHT22;8064;51.142;4.780;2023-06-22T06:12:02;20.80;99.90
15930;DHT22;8064;51.142;4.780;2023-06-22T06:14:28;20.80;99.90
15930;DHT22;8064;51.142;4.780;2023-06-22T06:16:54;20.80;99.90
15930;DHT22;8064;51.142;4.780;2023-06-22T06:19:20;20.80;99.90
15930;DHT22;8064;51.142;4.780;2023-06-22T06:21:46;20.90;99.90
15930;DHT22;8064;51.142;4.780;2023-06-22T06:24:12;20.90;99.90
15930;DHT22;8064;51.142;4.780;2023-06-22T06:26:37;20.90;99.90
15930;DHT22;8064;51.142;4.780;2023-06-22T06:29:03;20.90;99.90
15930;DHT22;8064;51.142;4.780;2023-06-22T06:31:29;20.90;99.90
15930;DHT22;8064;51.142;4.780;2023-06-22T06:33:55;20.90;99.90
15930;DHT22;8064;51.142;4.780;2023-06-22T06:36:21;20.90;99.90
15930;DHT22;8064;51.142;4.780;2023-06-22T06:38:47;20.90;99.90
15930;DHT22;8064;51.142;4.780;2023-06-22T06:41:14;20.90;99.90
15930;DHT22;8064;51.142;4.780;2023-06-22T06:43:40;20.90;99.90
15930;DHT22;8064;51.142;4.780;2023-06-22T06:46:07;20.90;99.90
15930;DHT22;8064;51.142;4.780;2023-06-22T06:48:33;21.00;99.90
15930;DHT22;8064;51.142;4.780;2023-06-22T06:50:59;21.10;99.90
15930;DHT22;8064;51.142;4.780;2023-06-22T06:53:25;21.10;99.90
15930;DHT22;8064;51.142;4.780;2023-06-22T06:55:52;21.10;99.90
15930;DHT22;8064;51.142;4.780;2023-06-22T06:58:17;21.20;99.90
15930;DHT22;8064;51.142;4.780;2023-06-22T07:00:43;21.20;99.90
15930;DHT22;8064;51.142;4.780;2023-06-22T07:03:09;21.20;99.90
15930;DHT22;8064;51.142;4.780;2023-06-22T07:05:35;21.20;99.90
15930;DHT22;8064;51.142;4.780;2023-06-22T07:08:01;21.20;99.90
15930;DHT22;8064;51.142;4.780;2023-06-22T07:10:28;21.20;99.90
15930;DHT22;8064;51.142;4.780;2023-06-22T07:12:54;21.20;99.90
15930;DHT22;8064;51.142;4.780;2023-06-22T07:15:20;21.20;99.90
15930;DHT22;8064;51.142;4.780;2023-06-22T07:17:45;21.20;99.90
15930;DHT22;8064;51.142;4.780;2023-06-22T07:20:11;21.20;99.90
15930;DHT22;8064;51.142;4.780;2023-06-22T07:22:56;21.20;99.90
15930;DHT22;8064;51.142;4.780;2023-06-22T07:25:23;21.20;99.90
15930;DHT22;8064;51.142;4.780;2023-06-22T07:28:08;21.20;99.90
15930;DHT22;8064;51.142;4.780;2023-06-22T07:30:34;21.20;99.90
15930;DHT22;8064;51.142;4.780;2023-06-22T07:33:01;21.20;99.90
15930;DHT22;8064;51.142;4.780;2023-06-22T07:35:29;21.20;99.90
15930;DHT22;8064;51.142;4.780;2023-06-22T07:37:55;21.20;99.90
15930;DHT22;8064;51.142;4.780;2023-06-22T07:40:21;21.20;99.90
15930;DHT22;8064;51.142;4.780;2023-06-22T07:42:46;21.20;99.90
15930;DHT22;8064;51.142;4.780;2023-06-22T07:45:22;21.20;99.90
15930;DHT22;8064;51.142;4.780;2023-06-22T07:47:47;21.20;99.90
15930;DHT22;8064;51.142;4.780;2023-06-22T07:50:13;21.20;99.90
15930;DHT22;8064;51.142;4.780;2023-06-22T07:52:39;21.20;99.90
15930;DHT22;8064;51.142;4.780;2023-06-22T07:55:05;21.20;99.90
15930;DHT22;8064;51.142;4.780;2023-06-22T07:57:31;21.30;99.90
15930;DHT22;8064;51.142;4.780;2023-06-22T08:00:00;21.30;99.90
15930;DHT22;8064;51.142;4.780;2023-06-22T08:02:26;21.30;99.90
15930;DHT22;8064;51.142;4.780;2023-06-22T08:04:52;21.40;99.90
15930;DHT22;8064;51.142;4.780;2023-06-22T08:07:18;21.40;99.90
15930;DHT22;8064;51.142;4.780;2023-06-22T08:09:47;21.40;99.90
15930;DHT22;8064;51.142;4.780;2023-06-22T08:12:14;21.50;99.90
15930;DHT22;8064;51.142;4.780;2023-06-22T08:14:42;21.50;99.90
15930;DHT22;8064;51.142;4.780;2023-06-22T08:17:09;21.60;99.90
15930;DHT22;8064;51.142;4.780;2023-06-22T08:19:37;21.60;99.90
15930;DHT22;8064;51.142;4.780;2023-06-22T08:22:03;21.60;99.90
15930;DHT22;8064;51.142;4.780;2023-06-22T08:24:28;21.70;99.90
15930;DHT22;8064;51.142;4.780;2023-06-22T08:26:56;21.70;99.90
15930;DHT22;8064;51.142;4.780;2023-06-22T08:29:22;21.80;99.90
15930;DHT22;8064;51.142;4.780;2023-06-22T08:31:47;21.80;99.70
15930;DHT22;8064;51.142;4.780;2023-06-22T08:34:13;21.80;99.50
15930;DHT22;8064;51.142;4.780;2023-06-22T08:36:39;21.80;99.30
15930;DHT22;8064;51.142;4.780;2023-06-22T08:39:07;21.80;99.10
15930;DHT22;8064;51.142;4.780;2023-06-22T08:41:33;21.80;99.10
15930;DHT22;8064;51.142;4.780;2023-06-22T08:43:59;21.90;99.00
15930;DHT22;8064;51.142;4.780;2023-06-22T08:46:25;21.90;98.90
15930;DHT22;8064;51.142;4.780;2023-06-22T08:48:56;21.80;98.80
15930;DHT22;8064;51.142;4.780;2023-06-22T08:51:23;21.80;98.80
15930;DHT22;8064;51.142;4.780;2023-06-22T08:53:49;21.80;98.70
15930;DHT22;8064;51.142;4.780;2023-06-22T08:56:15;21.80;98.60
15930;DHT22;8064;51.142;4.780;2023-06-22T08:58:41;21.80;98.60
15930;DHT22;8064;51.142;4.780;2023-06-22T09:01:06;21.70;98.80
15930;DHT22;8064;51.142;4.780;2023-06-22T09:03:32;21.70;98.50
15930;DHT22;8064;51.142;4.780;2023-06-22T09:06:01;21.70;98.30
15930;DHT22;8064;51.142;4.780;2023-06-22T09:08:27;21.70;98.30
15930;DHT22;8064;51.142;4.780;2023-06-22T09:10:53;21.70;98.40
15930;DHT22;8064;51.142;4.780;2023-06-22T09:13:19;21.70;98.80
15930;DHT22;8064;51.142;4.780;2023-06-22T09:15:44;21.70;98.50
15930;DHT22;8064;51.142;4.780;2023-06-22T09:18:11;21.80;98.50
15930;DHT22;8064;51.142;4.780;2023-06-22T09:20:37;21.80;98.40
15930;DHT22;8064;51.142;4.780;2023-06-22T09:23:03;21.80;98.40
15930;DHT22;8064;51.142;4.780;2023-06-22T09:25:28;21.80;98.40
15930;DHT22;8064;51.142;4.780;2023-06-22T09:27:54;21.80;98.50
15930;DHT22;8064;51.142;4.780;2023-06-22T09:30:21;21.80;98.50
15930;DHT22;8064;51.142;4.780;2023-06-22T09:32:47;21.80;98.60
15930;DHT22;8064;51.142;4.780;2023-06-22T09:35:13;21.90;98.80
15930;DHT22;8064;51.142;4.780;2023-06-22T09:37:39;21.90;99.00
15930;DHT22;8064;51.142;4.780;2023-06-22T09:40:06;21.90;99.10
15930;DHT22;8064;51.142;4.780;2023-06-22T09:42:35;21.90;99.30
15930;DHT22;8064;51.142;4.780;2023-06-22T09:45:01;21.90;99.30
15930;DHT22;8064;51.142;4.780;2023-06-22T09:47:29;21.90;99.40
15930;DHT22;8064;51.142;4.780;2023-06-22T09:49:54;21.90;99.70
15930;DHT22;8064;51.142;4.780;2023-06-22T09:52:21;21.90;99.80
15930;DHT22;8064;51.142;4.780;2023-06-22T09:54:47;21.90;99.90
15930;DHT22;8064;51.142;4.780;2023-06-22T09:57:13;21.90;99.90
15930;DHT22;8064;51.142;4.780;2023-06-22T09:59:39;21.90;99.90
15930;DHT22;8064;51.142;4.780;2023-06-22T10:02:06;21.90;99.90
15930;DHT22;8064;51.142;4.780;2023-06-22T10:04:33;21.90;99.90
15930;DHT22;8064;51.142;4.780;2023-06-22T10:06:59;21.90;99.90
15930;DHT22;8064;51.142;4.780;2023-06-22T10:09:25;21.90;99.90
15930;DHT22;8064;51.142;4.780;2023-06-22T10:11:51;21.90;99.90
15930;DHT22;8064;51.142;4.780;2023-06-22T10:14:17;21.80;99.90
15930;DHT22;8064;51.142;4.780;2023-06-22T10:16:42;21.80;99.90
15930;DHT22;8064;51.142;4.780;2023-06-22T10:19:08;21.70;99.90
15930;DHT22;8064;51.142;4.780;2023-06-22T10:21:34;21.70;99.90
15930;DHT22;8064;51.142;4.780;2023-06-22T10:24:00;21.60;99.90
15930;DHT22;8064;51.142;4.780;2023-06-22T10:26:32;21.50;99.90
15930;DHT22;8064;51.142;4.780;2023-06-22T10:28:58;21.40;99.90
15930;DHT22;8064;51.142;4.780;2023-06-22T10:31:24;21.30;99.90
15930;DHT22;8064;51.142;4.780;2023-06-22T10:33:50;21.30;99.90
15930;DHT22;8064;51.142;4.780;2023-06-22T10:36:15;21.20;99.90
15930;DHT22;8064;51.142;4.780;2023-06-22T10:38:41;21.10;99.90
15930;DHT22;8064;51.142;4.780;2023-06-22T10:41:07;21.00;99.90
15930;DHT22;8064;51.142;4.780;2023-06-22T10:43:33;20.90;99.90
15930;DHT22;8064;51.142;4.780;2023-06-22T10:45:58;20.80;99.90
15930;DHT22;8064;51.142;4.780;2023-06-22T10:48:24;20.80;99.90
15930;DHT22;8064;51.142;4.780;2023-06-22T10:50:50;20.70;99.90
15930;DHT22;8064;51.142;4.780;2023-06-22T10:53:16;20.60;99.90
15930;DHT22;8064;51.142;4.780;2023-06-22T10:55:41;20.60;99.90
15930;DHT22;8064;51.142;4.780;2023-06-22T10:58:07;20.60;99.90
15930;DHT22;8064;51.142;4.780;2023-06-22T11:00:33;20.50;99.90
15930;DHT22;8064;51.142;4.780;2023-06-22T11:02:59;20.60;99.90
15930;DHT22;8064;51.142;4.780;2023-06-22T11:05:24;20.50;99.90
15930;DHT22;8064;51.142;4.780;2023-06-22T11:07:50;20.60;99.90
15930;DHT22;8064;51.142;4.780;2023-06-22T11:10:16;20.60;99.90
15930;DHT22;8064;51.142;4.780;2023-06-22T11:12:42;20.60;99.90
15930;DHT22;8064;51.142;4.780;2023-06-22T11:15:08;20.60;99.90
15930;DHT22;8064;51.142;4.780;2023-06-22T11:17:35;20.60;99.90
15930;DHT22;8064;51.142;4.780;2023-06-22T11:20:01;20.60;99.90
15930;DHT22;8064;51.142;4.780;2023-06-22T11:22:27;20.60;99.90
15930;DHT22;8064;51.142;4.780;2023-06-22T11:24:53;20.60;99.90
15930;DHT22;8064;51.142;4.780;2023-06-22T11:27:19;20.60;99.90
15930;DHT22;8064;51.142;4.780;2023-06-22T11:29:45;20.70;99.90
15930;DHT22;8064;51.142;4.780;2023-06-22T11:32:10;20.70;99.90
15930;DHT22;8064;51.142;4.780;2023-06-22T11:34:36;20.70;99.90
15930;DHT22;8064;51.142;4.780;2023-06-22T11:37:02;20.70;99.90
15930;DHT22;8064;51.142;4.780;2023-06-22T11:39:28;20.70;99.90
15930;DHT22;8064;51.142;4.780;2023-06-22T11:41:53;20.70;99.90
15930;DHT22;8064;51.142;4.780;2023-06-22T11:44:19;20.70;99.90
15930;DHT22;8064;51.142;4.780;2023-06-22T11:46:45;20.70;99.90
15930;DHT22;8064;51.142;4.780;2023-06-22T11:49:11;20.60;99.90
15930;DHT22;8064;51.142;4.780;2023-06-22T11:51:37;20.60;99.90
15930;DHT22;8064;51.142;4.780;2023-06-22T11:54:03;20.60;99.90
15930;DHT22;8064;51.142;4.780;2023-06-22T11:56:28;20.70;99.90
15930;DHT22;8064;51.142;4.780;2023-06-22T11:58:54;20.70;99.90
15930;DHT22;8064;51.142;4.780;2023-06-22T12:01:20;20.70;99.90
15930;DHT22;8064;51.142;4.780;2023-06-22T12:03:46;20.80;99.90
15930;DHT22;8064;51.142;4.780;2023-06-22T12:06:13;20.80;99.90
15930;DHT22;8064;51.142;4.780;2023-06-22T12:08:39;20.80;99.90
15930;DHT22;8064;51.142;4.780;2023-06-22T12:11:05;20.80;99.90
15930;DHT22;8064;51.142;4.780;2023-06-22T12:13:30;20.80;99.90
15930;DHT22;8064;51.142;4.780;2023-06-22T12:15:56;20.70;99.90
15930;DHT22;8064;51.142;4.780;2023-06-22T12:18:22;20.70;99.90
15930;DHT22;8064;51.142;4.780;2023-06-22T12:20:48;20.70;99.90
15930;DHT22;8064;51.142;4.780;2023-06-22T12:23:14;20.70;99.90
15930;DHT22;8064;51.142;4.780;2023-06-22T12:25:40;20.60;99.90
15930;DHT22;8064;51.142;4.780;2023-06-22T12:28:06;20.60;99.90
15930;DHT22;8064;51.142;4.780;2023-06-22T12:30:33;20.60;99.90
15930;DHT22;8064;51.142;4.780;2023-06-22T12:32:59;20.60;99.90
15930;DHT22;8064;51.142;4.780;2023-06-22T12:35:24;20.60;99.90
15930;DHT22;8064;51.142;4.780;2023-06-22T12:37:50;20.50;99.90
15930;DHT22;8064;51.142;4.780;2023-06-22T12:40:16;20.50;99.90
15930;DHT22;8064;51.142;4.780;2023-06-22T12:42:42;20.50;99.90
15930;DHT22;8064;51.142;4.780;2023-06-22T12:45:08;20.50;99.90
15930;DHT22;8064;51.142;4.780;2023-06-22T12:47:34;20.50;99.90
15930;DHT22;8064;51.142;4.780;2023-06-22T12:50:00;20.50;99.90
15930;DHT22;8064;51.142;4.780;2023-06-22T12:52:26;20.50;99.90
15930;DHT22;8064;51.142;4.780;2023-06-22T12:54:52;20.50;99.90
15930;DHT22;8064;51.142;4.780;2023-06-22T12:57:18;20.50;99.90
15930;DHT22;8064;51.142;4.780;2023-06-22T12:59:45;20.50;99.90
15930;DHT22;8064;51.142;4.780;2023-06-22T13:02:11;20.40;99.90
15930;DHT22;8064;51.142;4.780;2023-06-22T13:04:36;20.40;99.90
15930;DHT22;8064;51.142;4.780;2023-06-22T13:07:02;20.40;99.90
15930;DHT22;8064;51.142;4.780;2023-06-22T13:09:28;20.40;99.90
15930;DHT22;8064;51.142;4.780;2023-06-22T13:11:54;20.40;99.90
15930;DHT22;8064;51.142;4.780;2023-06-22T13:14:20;20.30;99.90
15930;DHT22;8064;51.142;4.780;2023-06-22T13:16:45;20.30;99.90
15930;DHT22;8064;51.142;4.780;2023-06-22T13:19:11;20.30;99.90
15930;DHT22;8064;51.142;4.780;2023-06-22T13:21:37;20.20;99.90
15930;DHT22;8064;51.142;4.780;2023-06-22T13:24:03;20.20;99.90
15930;DHT22;8064;51.142;4.780;2023-06-22T13:26:31;20.20;99.90
15930;DHT22;8064;51.142;4.780;2023-06-22T13:28:57;20.10;99.90
15930;DHT22;8064;51.142;4.780;2023-06-22T13:31:23;20.10;99.90
15930;DHT22;8064;51.142;4.780;2023-06-22T13:33:49;20.10;99.90
15930;DHT22;8064;51.142;4.780;2023-06-22T13:36:17;20.00;99.90
15930;DHT22;8064;51.142;4.780;2023-06-22T13:38:43;20.00;99.90
15930;DHT22;8064;51.142;4.780;2023-06-22T13:41:09;20.00;99.90
15930;DHT22;8064;51.142;4.780;2023-06-22T13:43:35;20.00;99.90
15930;DHT22;8064;51.142;4.780;2023-06-22T13:46:01;20.00;99.90
15930;DHT22;8064;51.142;4.780;2023-06-22T13:48:26;19.90;99.90
15930;DHT22;8064;51.142;4.780;2023-06-22T13:50:54;19.90;99.90
15930;DHT22;8064;51.142;4.780;2023-06-22T13:53:20;19.90;99.90
15930;DHT22;8064;51.142;4.780;2023-06-22T13:55:45;19.90;99.90
15930;DHT22;8064;51.142;4.780;2023-06-22T13:58:13;19.90;99.90
15930;DHT22;8064;51.142;4.780;2023-06-22T14:00:39;19.90;99.90
15930;DHT22;8064;51.142;4.780;2023-06-22T14:03:04;19.90;99.90
15930;DHT22;8064;51.142;4.780;2023-06-22T14:05:30;19.80;99.90
15930;DHT22;8064;51.142;4.780;2023-06-22T14:07:56;19.80;99.90
15930;DHT22;8064;51.142;4.780;2023-06-22T14:10:22;19.80;99.90
15930;DHT22;8064;51.142;4.780;2023-06-22T14:12:48;19.80;99.90
15930;DHT22;8064;51.142;4.780;2023-06-22T14:15:14;19.80;99.90
15930;DHT22;8064;51.142;4.780;2023-06-22T14:17:39;19.80;99.90
15930;DHT22;8064;51.142;4.780;2023-06-22T14:20:06;19.80;99.90
15930;DHT22;8064;51.142;4.780;2023-06-22T14:22:33;19.80;99.90
15930;DHT22;8064;51.142;4.780;2023-06-22T14:25:00;19.80;99.90
15930;DHT22;8064;51.142;4.780;2023-06-22T14:27:27;19.80;99.90
15930;DHT22;8064;51.142;4.780;2023-06-22T14:29:52;19.80;99.90
15930;DHT22;8064;51.142;4.780;2023-06-22T14:32:18;19.80;99.90
15930;DHT22;8064;51.142;4.780;2023-06-22T14:34:44;19.80;99.90
15930;DHT22;8064;51.142;4.780;2023-06-22T14:37:10;19.80;99.90
15930;DHT22;8064;51.142;4.780;2023-06-22T14:39:36;19.90;99.90
15930;DHT22;8064;51.142;4.780;2023-06-22T14:42:02;19.90;99.90
15930;DHT22;8064;51.142;4.780;2023-06-22T14:44:29;19.90;99.90
15930;DHT22;8064;51.142;4.780;2023-06-22T14:46:56;19.90;99.90
15930;DHT22;8064;51.142;4.780;2023-06-22T14:49:21;19.90;99.90
15930;DHT22;8064;51.142;4.780;2023-06-22T14:51:47;20.00;99.90
15930;DHT22;8064;51.142;4.780;2023-06-22T14:54:13;20.00;99.90
15930;DHT22;8064;51.142;4.780;2023-06-22T14:56:39;20.00;99.90
15930;DHT22;8064;51.142;4.780;2023-06-22T14:59:06;20.00;99.90
15930;DHT22;8064;51.142;4.780;2023-06-22T15:01:31;20.10;99.90
15930;DHT22;8064;51.142;4.780;2023-06-22T15:03:57;20.10;99.90
15930;DHT22;8064;51.142;4.780;2023-06-22T15:06:23;20.10;99.90
15930;DHT22;8064;51.142;4.780;2023-06-22T15:08:49;20.10;99.90
15930;DHT22;8064;51.142;4.780;2023-06-22T15:11:14;20.10;99.90
15930;DHT22;8064;51.142;4.780;2023-06-22T15:13:41;20.10;99.90
15930;DHT22;8064;51.142;4.780;2023-06-22T15:16:07;20.10;99.90
15930;DHT22;8064;51.142;4.780;2023-06-22T15:18:34;20.10;99.90
15930;DHT22;8064;51.142;4.780;2023-06-22T15:21:01;20.10;99.90
15930;DHT22;8064;51.142;4.780;2023-06-22T15:23:28;20.10;99.90
15930;DHT22;8064;51.142;4.780;2023-06-22T15:25:55;20.20;99.90
15930;DHT22;8064;51.142;4.780;2023-06-22T15:28:21;20.20;99.90
15930;DHT22;8064;51.142;4.780;2023-06-22T15:30:47;20.20;99.90
15930;DHT22;8064;51.142;4.780;2023-06-22T15:33:14;20.20;99.90
15930;DHT22;8064;51.142;4.780;2023-06-22T15:35:40;20.20;99.90
15930;DHT22;8064;51.142;4.780;2023-06-22T15:38:05;20.20;99.90
15930;DHT22;8064;51.142;4.780;2023-06-22T15:40:31;20.30;99.90
15930;DHT22;8064;51.142;4.780;2023-06-22T15:42:57;20.30;99.90
15930;DHT22;8064;51.142;4.780;2023-06-22T15:45:23;20.30;99.90
15930;DHT22;8064;51.142;4.780;2023-06-22T15:47:49;20.40;99.90
15930;DHT22;8064;51.142;4.780;2023-06-22T15:50:15;20.40;99.90